Terminal Aerodrome Forecast
Issued by NWS

Home | Current Version | Previous Version | Graphics & Text | Print | Product List | Glossary On
Versions: 1 2 3 4 5 6 7 8 9 10 11 12 13 14 15 16
000
FTUS43 KUNR 231138
TAFGCC
TAF
KGCC 231138Z 2312/2412 04011KT P6SM OVC012
      TEMPO 2312/2315 1SM -SN BKN008
     FM231500 04016KT 3/4SM -SN OVC010
     FM240000 04013KT 2SM -SN OVC015
     FM240600 04008KT 5SM -SN OVC025=

USA.gov is the U.S. government's official web portal to all federal, state and local government web resources and services.